Latest Coastal Weather Observations for Aireys Inlet

IDV60701

Issued at 7:22 am EST Friday 20 April 2018 (issued every 10 minutes, with the page automatically refreshed every 10 minutes)

About coastal observations | Map of coastal stations | Coastal observations for VIC | Marine services | Other Formats
Station Details ID: 090180 Name: AIREYS INLET Lat: -38.46 Lon: 144.09 Height: 105.0 m
Data from the previous 72 hours. | See also: Recent months at Aireys Inlet
Date/Time
EST
Temp
°C
Wind Pressure Rain since
9am
mm
Weather Cloud Vis
km
Sea
Height
m
Swell
Dir  Spd
kts
Gust
kts
hPa Trend Height
m
Period
s
Dir
20/07:00am 13.3 CALM 0 0 - - 0.0 - - - - - - -
20/06:30am 13.4 CALM 0 0 - - 0.0 - - - - - - -
20/06:00am 13.5 CALM 0 0 - - 0.0 - - - - - - -
20/05:30am 13.7 CALM 0 0 - - 0.0 - - - - - - -
20/05:00am 13.6 CALM 0 0 - - 0.0 - - - - - - -
20/04:30am 13.9 CALM 0 1 - - 0.0 - - - - - - -
20/04:00am 14.3 CALM 0 0 - - 0.0 - - - - - - -
20/03:30am 14.4 CALM 0 0 - - 0.0 - - - - - - -
20/03:00am 14.3 CALM 0 0 - - 0.0 - - - - - - -
20/02:30am 14.3 CALM 0 0 - - 0.0 - - - - - - -
20/02:00am 14.3 SSE 1 3 - - 0.0 - - - - - - -
20/01:30am 14.2 S 1 2 - - 0.0 - - - - - - -
20/01:00am 13.9 CALM 0 0 - - 0.0 - - - - - - -
20/12:30am 13.9 CALM 0 0 - - 0.0 - - - - - - -
20/12:00am 14.0 CALM 0 0 - - 0.0 - - - - - - -
 
Date/Time
EST
Temp
°C
Wind Pressure Rain since
9am
mm
Weather Cloud Vis
km
Sea
Height
m
Swell
Dir  Spd
kts
Gust
kts
hPa Trend Height
m
Period
s
Dir
19/11:30pm 13.8 CALM 0 0 - - 0.0 - - - - - - -
19/11:00pm 14.0 S 1 2 - - 0.0 - - - - - - -
19/10:30pm 14.2 CALM 0 0 - - 0.0 - - - - - - -
19/10:00pm 14.0 CALM 0 0 - - 0.0 - - - - - - -
19/09:30pm 14.3 CALM 0 1 - - 0.0 - - - - - - -
19/09:00pm 14.4 S 1 2 - - 0.0 - - - - - - -
19/08:30pm 14.6 SSE 2 2 - - 0.0 - - - - - - -
19/08:00pm 14.8 SSE 2 3 - - 0.0 - - - - - - -
19/07:30pm 14.9 SSE 2 2 - - 0.0 - - - - - - -
19/07:00pm 14.8 S 3 5 - - 0.0 - - - - - - -
19/06:30pm 14.9 SSE 3 5 - - 0.0 - - - - - - -
19/06:00pm 15.3 SE 3 4 - - 0.0 - - - - - - -
19/05:30pm 16.4 S 2 4 - - 0.0 - - - - - - -
19/05:00pm 17.2 S 3 5 - - 0.0 - - - - - - -
19/04:30pm 18.2 SSW 4 6 - - 0.0 - - - - - - -
19/04:00pm 18.4 SSW 4 7 - - 0.0 - - - - - - -
19/03:30pm 19.0 SSW 4 7 - - 0.0 - - - - - - -
19/03:00pm 19.8 SSW 5 8 - - 0.0 - - - - - - -
19/02:30pm 19.6 S 3 5 - - 0.0 - - - - - - -
19/02:00pm 19.8 SSW 4 7 - - 0.0 - - - - - - -
19/01:30pm 19.9 S 3 5 - - 0.0 - - - - - - -
19/01:00pm 19.9 S 4 7 - - 0.0 - - - - - - -
19/12:30pm 19.3 S 4 6 - - 0.0 - - - - - - -
19/12:00pm 20.2 SSW 2 4 - - 0.0 - - - - - - -
19/11:30am 19.6 SSW 3 4 - - 0.0 - - - - - - -
19/11:00am 18.4 SSE 3 3 - - 0.0 - - - - - - -
19/10:30am 18.1 SSW 1 2 - - 0.0 - - - - - - -
19/10:00am 16.9 CALM 0 0 - - 0.0 - - - - - - -
19/09:30am 15.3 CALM 0 0 - - 0.0 - - - - - - -
19/09:00am 14.3 NW 3 5 - - 0.0 - - - - - - -
19/08:30am 12.2 NW 2 3 - - 0.0 - - - - - - -
19/08:00am 12.2 NW 2 3 - - 0.0 - - - - - - -
19/07:30am 12.0 W 2 2 - - 0.0 - - - - - - -
19/07:00am 11.3 WNW 3 3 - - 0.0 - - - - - - -
19/06:30am 11.8 WNW 3 3 - - 0.0 - - - - - - -
19/06:00am 10.7 NW 3 4 - - 0.0 - - - - - - -
19/05:30am 11.1 NNW 6 7 - - 0.0 - - - - - - -
19/05:00am 10.8 NNW 6 7 - - 0.0 - - - - - - -
19/04:30am 11.1 NNW 5 7 - - 0.0 - - - - - - -
19/04:00am 11.4 NNW 4 5 - - 0.0 - - - - - - -
19/03:30am 11.7 NNW 4 5 - - 0.0 - - - - - - -
19/03:00am 11.5 NNW 5 7 - - 0.0 - - - - - - -
19/02:30am 11.8 NNW 4 5 - - 0.0 - - - - - - -
19/02:00am 11.9 NW 3 4 - - 0.0 - - - - - - -
19/01:30am 12.8 NW 2 2 - - 0.0 - - - - - - -
19/01:00am 12.6 NW 2 2 - - 0.0 - - - - - - -
19/12:30am 11.9 NNW 5 7 - - 0.0 - - - - - - -
19/12:00am 11.9 NW 3 4 - - 0.0 - - - - - - -
 
Date/Time
EST
Temp
°C
Wind Pressure Rain since
9am
mm
Weather Cloud Vis
km
Sea
Height
m
Swell
Dir  Spd
kts
Gust
kts
hPa Trend Height
m
Period
s
Dir
18/11:30pm 11.9 NW 4 5 - - 0.0 - - - - - - -
18/11:00pm 11.6 NNW 5 6 - - 0.0 - - - - - - -
18/10:30pm 11.4 NNW 5 7 - - 0.0 - - - - - - -
18/10:00pm 11.4 NW 3 5 - - 0.0 - - - - - - -
18/09:30pm 11.2 NNW 5 6 - - 0.0 - - - - - - -
18/09:00pm 11.0 NNW 5 6 - - 0.0 - - - - - - -
18/08:30pm 11.2 NNW 4 5 - - 0.0 - - - - - - -
18/08:00pm 11.6 NNW 2 4 - - 0.0 - - - - - - -
18/07:30pm 11.7 NNW 4 5 - - 0.0 - - - - - - -
18/07:00pm 12.6 N 1 2 - - 0.0 - - - - - - -
18/06:30pm 13.3 E 2 3 - - 0.0 - - - - - - -
18/06:00pm 13.5 E 3 3 - - 0.0 - - - - - - -
18/05:30pm 14.3 ESE 1 2 - - 0.0 - - - - - - -
18/05:00pm 14.8 ESE 2 3 - - 0.0 - - - - - - -
18/04:30pm 15.1 ESE 3 7 - - 0.0 - - - - - - -
18/04:00pm 15.4 E 3 5 - - 0.0 - - - - - - -
18/03:30pm 15.5 ESE 4 7 - - 0.0 - - - - - - -
18/03:00pm 15.9 E 5 8 - - 0.0 - - - - - - -
18/02:30pm 15.8 ESE 5 8 - - 0.0 - - - - - - -
18/02:00pm 16.1 E 4 8 - - 0.0 - - - - - - -
18/01:30pm 15.8 E 6 10 - - 0.0 - - - - - - -
18/01:00pm 15.4 E 5 8 - - 0.0 - - - - - - -
18/12:30pm 15.3 E 7 10 - - 0.0 - - - - - - -
18/12:00pm 15.5 E 6 11 - - 0.0 - - - - - - -
18/11:30am 15.2 ENE 8 12 - - 0.0 - - - - - - -
18/11:00am 14.7 ENE 8 13 - - 0.0 - - - - - - -
18/10:30am 14.8 ENE 7 11 - - 0.0 - - - - - - -
18/10:00am 14.8 NE 6 10 - - 0.0 - - - - - - -
18/09:30am 13.4 NNE 6 10 - - 0.0 - - - - - - -
18/09:00am 12.6 NNE 6 10 - - 0.0 - - - - - - -
18/08:30am 11.9 NNE 5 8 - - 0.0 - - - - - - -
18/08:00am 11.3 NNE 4 6 - - 0.0 - - - - - - -
18/07:30am 10.9 NNE 5 7 - - 0.0 - - - - - - -
18/07:00am 10.8 NNE 4 7 - - 0.0 - - - - - - -
18/06:30am 10.9 NNE 3 5 - - 0.0 - - - - - - -
18/06:00am 10.8 NNE 3 4 - - 0.0 - - - - - - -
18/05:30am 11.8 E 4 6 - - 0.0 - - - - - - -
18/05:00am 11.8 ENE 3 6 - - 0.0 - - - - - - -
18/04:30am 12.1 ENE 3 5 - - 0.0 - - - - - - -
18/04:00am 12.0 ESE 4 7 - - 0.0 - - - - - - -
18/03:30am 12.4 E 4 7 - - 0.0 - - - - - - -
18/03:00am 12.2 E 3 7 - - 0.0 - - - - - - -
18/02:30am 12.4 E 5 8 - - 0.0 - - - - - - -
18/02:00am 12.4 E 3 5 - - 0.0 - - - - - - -
18/01:30am 12.4 E 4 7 - - 0.0 - - - - - - -
18/01:00am 12.7 ESE 4 7 - - 0.0 - - - - - - -
18/12:30am 12.4 E 2 5 - - 0.0 - - - - - - -
18/12:00am 12.5 ESE 3 6 - - 0.0 - - - - - - -
 
Date/Time
EST
Temp
°C
Wind Pressure Rain since
9am
mm
Weather Cloud Vis
km
Sea
Height
m
Swell
Dir  Spd
kts
Gust
kts
hPa Trend Height
m
Period
s
Dir
17/11:30pm 12.6 ESE 4 8 - - 0.0 - - - - - - -
17/11:00pm 12.6 SSE 4 7 - - 0.0 - - - - - - -
17/10:30pm 12.7 SE 4 7 - - 0.0 - - - - - - -
17/10:00pm 12.6 SE 3 8 - - 0.0 - - - - - - -
17/09:30pm 12.6 SSE 3 5 - - 0.0 - - - - - - -
17/09:00pm 12.7 SE 6 9 - - 0.0 - - - - - - -
17/08:30pm 12.7 SSE 4 7 - - 0.0 - - - - - - -
17/08:00pm 12.8 SSW 5 9 - - 0.0 - - - - - - -
17/07:30pm 12.8 S 5 10 - - 0.0 - - - - - - -
17/07:00pm 12.5 S 4 8 - - 0.0 - - - - - - -
17/06:30pm 12.8 S 5 8 - - 0.0 - - - - - - -
17/06:00pm 12.8 SSW 7 10 - - 0.0 - - - - - - -
17/05:30pm 13.1 SSW 7 10 - - 0.0 - - - - - - -
17/05:00pm 13.4 SSE 5 7 - - 0.0 - - - - - - -
17/04:30pm 13.5 S 5 9 - - 0.0 - - - - - - -
17/04:00pm 13.7 S 6 9 - - 0.0 - - - - - - -
17/03:30pm 13.9 SSW 6 10 - - 0.0 - - - - - - -
17/03:00pm 14.0 S 7 11 - - 0.0 - - - - - - -
17/02:30pm 14.3 S 6 11 - - 0.0 - - - - - - -
17/02:00pm 14.4 S 6 9 - - 0.0 - - - - - - -
17/01:30pm 14.4 SSW 8 11 - - 0.0 - - - - - - -
17/01:00pm 14.7 SSW 8 12 - - 0.0 - - - - - - -
17/12:30pm 14.6 SSW 6 9 - - 0.0 - - - - - - -
17/12:00pm 14.8 SW 6 10 - - 0.0 - - - - - - -
17/11:30am 14.7 SSW 6 10 - - 0.0 - - - - - - -
17/11:00am 14.4 SSW 7 12 - - 0.0 - - - - - - -
17/10:30am 13.6 SSW 8 11 - - 0.0 - - - - - - -
17/10:00am 13.5 SSW 8 11 - - 0.0 - - - - - - -
17/09:30am 13.3 SSW 8 11 - - 0.0 - - - - - - -
17/09:00am 12.8 SSW 9 16 - - 0.0 - - - - - - -
17/08:30am 12.6 SSW 10 15 - - 0.0 - - - - - - -
17/08:00am 12.4 SSW 12 18 - - 0.0 - - - - - - -
17/07:30am 12.5 SSW 12 20 - - 0.0 - - - - - - -

Other Formats:

Comma delimited format used in spreadsheet applications
http://www.bom.gov.au/fwo/IDV60701/IDV60701.94846.axf

JavaScript Object Notation format (JSON) in row-major order
http://www.bom.gov.au/fwo/IDV60701/IDV60701.94846.json